CMA CGM Virginia — 2BCY3 — position and weather

sailwx.info

Track history (hours):
 
Tides and Currents Weather Stations Pressure Air Temp Water Temp Dewpoint Dewpoint Depression Visibility Wind Speed Wind Dir Waves Ship Positions

CMA CGM Virginia

Last reported at 2017-Dec-21 18:52 UTC. Time now 2018-Jan-22 02:34 UTC.
Position N 31°15' E 032°18'.
Warning: this ship's position is 31 days out of date.

Length 293 m; draft 11.4 m.

Type: Cargo ship. MMSI: 235065043.

Date/timePositionNaut miles runAvg speedWind from/ knotsBaromVisibWave heightAir tempDewpointWater temp
2017-Dec-21 18:52N 31°15' E 032°18'0 0.0
2017-Dec-21 18:30N 31°15' E 032°18'0 0.0
2017-Dec-21 18:00N 31°15' E 032°18'0 0.0
2017-Dec-21 17:30N 31°15' E 032°18'0 0.0
2017-Dec-21 17:00N 31°15' E 032°18'0 0.0
2017-Dec-21 16:30N 31°15' E 032°18'0 0.0
2017-Dec-21 15:56N 31°15' E 032°18'0 0.0
2017-Dec-21 15:30N 31°15' E 032°18'0 0.0
2017-Dec-21 15:00N 31°15' E 032°18'0 0.0
2017-Dec-21 14:30N 31°15' E 032°18'0 0.0
2017-Dec-21 14:00N 31°15' E 032°18'0 0.0
2017-Dec-21 13:30N 31°15' E 032°18'0 0.0
2017-Dec-21 12:53N 31°15' E 032°18'0 0.0
2017-Dec-21 12:30N 31°15' E 032°18'0 0.0
2017-Dec-21 12:00N 31°15' E 032°18'0 0.0
2017-Dec-21 11:28N 31°15' E 032°18'0 0.0
2017-Dec-21 10:57N 31°15' E 032°18'0 0.0
2017-Dec-21 09:47N 31°15' E 032°18'0 0.0
2017-Dec-21 09:30N 31°15' E 032°18'0 0.0
2017-Dec-21 08:59N 31°15' E 032°18'2 3.4
2017-Dec-21 08:30N 31°16' E 032°19'5 9.8
2017-Dec-21 07:58N 31°21' E 032°22'3 6.9
2017-Dec-21 07:30N 31°24' E 032°21'611.9
2017-Dec-21 07:00N 31°30' E 032°21'714.7
2017-Dec-21 06:30N 31°37' E 032°24'  
2017-Dec-18 22:33N 36°13' E 027°05'118.9
2017-Dec-18 22:30N 36°14' E 027°04'1519.0
2017-Dec-18 21:44N 36°25' E 026°52'419.0
2017-Dec-18 21:30N 36°28' E 026°49'918.8
2017-Dec-18 21:00N 36°35' E 026°41'1019.5
2017-Dec-18 20:30N 36°42' E 026°33'1019.5
2017-Dec-18 20:00N 36°49' E 026°24'1019.7
2017-Dec-18 19:30N 36°56' E 026°15'1019.2
2017-Dec-18 19:00N 37°04' E 026°09'1019.3
2017-Dec-18 18:30N 37°13' E 026°04'1019.6
2017-Dec-18 18:00N 37°22' E 025°59'1019.3
2017-Dec-18 17:30N 37°31' E 025°54'1019.2
2017-Dec-18 16:58N 37°41' E 025°52'919.3
2017-Dec-18 16:28N 37°51' E 025°51'919.5
2017-Dec-18 16:00N 37°60' E 025°50'31 0.9
2017-Dec-17 03:19N 38°19' E 025°19'512.4
2017-Dec-17 02:56N 38°17' E 025°14'512.2
2017-Dec-17 02:30N 38°14' E 025°08'612.3
2017-Dec-17 01:59N 38°11' E 025°01'612.5
2017-Dec-17 01:30N 38°07' E 024°55'1512.2
2017-Dec-17 00:17N 37°60' E 024°39'412.2
2017-Dec-17 00:00N 37°56' E 024°37'612.4
2017-Dec-16 23:30N 37°51' E 024°35'612.6
2017-Dec-16 23:00N 37°45' E 024°32'612.4
2017-Dec-16 22:30N 37°39' E 024°28'612.3
2017-Dec-16 22:00N 37°34' E 024°25'812.2
2017-Dec-16 21:20N 37°26' E 024°20'412.1
2017-Dec-16 21:00N 37°23' E 024°18'612.2
2017-Dec-16 20:30N 37°17' E 024°15'612.2
2017-Dec-16 20:00N 37°12' E 024°11'612.2
2017-Dec-16 19:30N 37°07' E 024°07'612.4
2017-Dec-16 19:00N 37°01' E 024°04'612.4
2017-Dec-16 18:30N 36°55' E 024°01'612.4
2017-Dec-16 18:00N 36°50' E 023°57'612.3
2017-Dec-16 17:30N 36°44' E 023°54'4 7.3
2017-Dec-16 17:00N 36°42' E 023°50'1 1.6
2017-Dec-16 16:30N 36°42' E 023°49'1 1.5
2017-Dec-16 16:00N 36°41' E 023°49'1 1.5
2017-Dec-16 15:30N 36°40' E 023°49'1 1.4
2017-Dec-16 15:00N 36°40' E 023°48'1 1.3
2017-Dec-16 14:30N 36°39' E 023°48'1 1.4
2017-Dec-16 14:00N 36°39' E 023°47'1 1.4
2017-Dec-16 13:30N 36°38' E 023°47'1 1.6
2017-Dec-16 13:00N 36°37' E 023°46'1 1.7
2017-Dec-16 12:30N 36°36' E 023°46'1 1.6
2017-Dec-16 12:00N 36°36' E 023°46'1 1.6
2017-Dec-16 11:30N 36°35' E 023°45'1 1.5
2017-Dec-16 11:00N 36°34' E 023°45'1 1.4
2017-Dec-16 10:30N 36°34' E 023°44'1 1.3
2017-Dec-16 10:00N 36°33' E 023°44'1 1.3
2017-Dec-16 09:30N 36°33' E 023°44'1 1.5
2017-Dec-16 09:00N 36°32' E 023°44'1 1.4
2017-Dec-16 08:30N 36°31' E 023°44'1 1.2
2017-Dec-16 08:00N 36°31' E 023°43'1 2.2
2017-Dec-16 07:30N 36°30' E 023°42'911.8
2017-Dec-16 06:43N 36°23' E 023°35'44011.0
2017-Dec-14 14:42N 35°49' E 014°32'0 0.0
2017-Dec-14 14:12N 35°49' E 014°32'0 0.0
2017-Dec-14 13:42N 35°49' E 014°32'0 0.0
2017-Dec-14 13:30N 35°49' E 014°32'0 0.0
2017-Dec-14 13:00N 35°49' E 014°32'0 0.0
2017-Dec-14 12:30N 35°49' E 014°32'0 0.0
2017-Dec-14 11:57N 35°49' E 014°32'0 0.0
2017-Dec-14 10:33N 35°49' E 014°32'0 0.0
2017-Dec-14 06:30N 35°49' E 014°32'0 0.0
2017-Dec-14 05:51N 35°49' E 014°32'0 0.0
2017-Dec-14 05:24N 35°49' E 014°32'0 0.0
2017-Dec-14 04:00N 35°49' E 014°32'0 0.0
2017-Dec-14 03:30N 35°49' E 014°32'0 0.0
2017-Dec-13 23:15N 35°49' E 014°32'0 0.0
2017-Dec-13 22:52N 35°49' E 014°32'0 0.6
2017-Dec-13 22:30N 35°49' E 014°32'3 5.3
2017-Dec-13 22:00N 35°48' E 014°35'714.5
2017-Dec-13 21:30N 35°49' E 014°44'816.1
2017-Dec-13 21:00N 35°49' E 014°54'42815.0
2017-Dec-12 16:32N 37°10' E 023°37'217.0
2017-Dec-12 16:27N 37°11' E 023°37'817.2
2017-Dec-12 16:00N 37°18' E 023°40'816.5
2017-Dec-12 15:30N 37°26' E 023°42'816.7
2017-Dec-12 15:00N 37°35' E 023°42'816.5
2017-Dec-12 14:30N 37°43' E 023°40'816.6
2017-Dec-12 14:00N 37°51' E 023°37'611.5
2017-Dec-12 13:31N 37°57' E 023°36'1 1.9
2017-Dec-12 13:00N 37°57' E 023°35'0 0.0
2017-Dec-12 12:30N 37°57' E 023°35'0 0.0
2017-Dec-12 12:00N 37°57' E 023°35'0 0.0
2017-Dec-12 11:30N 37°57' E 023°35'0 0.0
2017-Dec-12 11:00N 37°57' E 023°35'0 0.0
2017-Dec-12 10:30N 37°57' E 023°35'0 0.0
2017-Dec-12 10:00N 37°57' E 023°35'0 0.0
2017-Dec-12 09:30N 37°57' E 023°35'0 0.0
2017-Dec-12 09:00N 37°57' E 023°35'0 0.0
2017-Dec-12 08:30N 37°57' E 023°35'0 0.0
2017-Dec-12 08:00N 37°57' E 023°35'0 0.0
2017-Dec-12 07:30N 37°57' E 023°35'0 0.0
2017-Dec-12 07:00N 37°57' E 023°35'0 0.0
2017-Dec-12 06:30N 37°57' E 023°35'0 0.0
2017-Dec-12 06:00N 37°57' E 023°35'0 0.0
2017-Dec-12 05:30N 37°57' E 023°35'0 0.0
2017-Dec-12 05:00N 37°57' E 023°35'0 0.0
2017-Dec-12 04:30N 37°57' E 023°35'0 0.0
2017-Dec-12 04:00N 37°57' E 023°35'0 0.0
2017-Dec-12 03:30N 37°57' E 023°35'0 0.0
2017-Dec-12 03:00N 37°57' E 023°35'0 0.0
2017-Dec-12 02:30N 37°57' E 023°35'0 0.0
2017-Dec-12 02:00N 37°57' E 023°35'0 0.0
2017-Dec-12 01:30N 37°57' E 023°35'0 0.0
2017-Dec-12 01:00N 37°57' E 023°35'0 0.0
2017-Dec-12 00:30N 37°57' E 023°35'0 0.0
2017-Dec-12 00:00N 37°57' E 023°35'0 0.0
2017-Dec-11 23:30N 37°57' E 023°35'0 0.0
2017-Dec-11 23:01N 37°57' E 023°35'0 0.0
2017-Dec-11 22:31N 37°57' E 023°35'1 2.2
2017-Dec-11 22:01N 37°56' E 023°35'3 6.5
2017-Dec-11 21:30N 37°53' E 023°37'0 0.4
2017-Dec-11 21:00N 37°54' E 023°37'0 0.4
2017-Dec-11 20:31N 37°54' E 023°36'0 0.3
2017-Dec-11 20:01N 37°54' E 023°36'1 1.8
2017-Dec-11 19:31N 37°53' E 023°37'5 9.7
2017-Dec-11 19:01N 37°49' E 023°40'  
Track history (hours):
 
Tides and Currents Weather Stations Pressure Air Temp Water Temp Dewpoint Dewpoint Depression Visibility Wind Speed Wind Dir Waves Ship Positions

CMA CGM Virginia

Last reported at 2017-Dec-21 18:52 UTC. Time now 2018-Jan-22 02:34 UTC.
Position N 31°15' E 032°18'.
Warning: this ship's position is 31 days out of date.

Length 293 m; draft 11.4 m.

Type: Cargo ship. MMSI: 235065043.

Date/timePositionNaut miles runAvg speedWind from/ knotsBaromVisibWave heightAir tempDewpointWater temp
2017-Dec-21 18:52N 31°15' E 032°18'0 0.0
2017-Dec-21 18:30N 31°15' E 032°18'0 0.0
2017-Dec-21 18:00N 31°15' E 032°18'0 0.0
2017-Dec-21 17:30N 31°15' E 032°18'0 0.0
2017-Dec-21 17:00N 31°15' E 032°18'0 0.0
2017-Dec-21 16:30N 31°15' E 032°18'0 0.0
2017-Dec-21 15:56N 31°15' E 032°18'0 0.0
2017-Dec-21 15:30N 31°15' E 032°18'0 0.0
2017-Dec-21 15:00N 31°15' E 032°18'0 0.0
2017-Dec-21 14:30N 31°15' E 032°18'0 0.0
2017-Dec-21 14:00N 31°15' E 032°18'0 0.0
2017-Dec-21 13:30N 31°15' E 032°18'0 0.0
2017-Dec-21 12:53N 31°15' E 032°18'0 0.0
2017-Dec-21 12:30N 31°15' E 032°18'0 0.0
2017-Dec-21 12:00N 31°15' E 032°18'0 0.0
2017-Dec-21 11:28N 31°15' E 032°18'0 0.0
2017-Dec-21 10:57N 31°15' E 032°18'0 0.0
2017-Dec-21 09:47N 31°15' E 032°18'0 0.0
2017-Dec-21 09:30N 31°15' E 032°18'0 0.0
2017-Dec-21 08:59N 31°15' E 032°18'2 3.4
2017-Dec-21 08:30N 31°16' E 032°19'5 9.8
2017-Dec-21 07:58N 31°21' E 032°22'3 6.9
2017-Dec-21 07:30N 31°24' E 032°21'611.9
2017-Dec-21 07:00N 31°30' E 032°21'714.7
2017-Dec-21 06:30N 31°37' E 032°24'  
2017-Dec-18 22:33N 36°13' E 027°05'118.9
2017-Dec-18 22:30N 36°14' E 027°04'1519.0
2017-Dec-18 21:44N 36°25' E 026°52'419.0
2017-Dec-18 21:30N 36°28' E 026°49'918.8
2017-Dec-18 21:00N 36°35' E 026°41'1019.5
2017-Dec-18 20:30N 36°42' E 026°33'1019.5
2017-Dec-18 20:00N 36°49' E 026°24'1019.7
2017-Dec-18 19:30N 36°56' E 026°15'1019.2
2017-Dec-18 19:00N 37°04' E 026°09'1019.3
2017-Dec-18 18:30N 37°13' E 026°04'1019.6
2017-Dec-18 18:00N 37°22' E 025°59'1019.3
2017-Dec-18 17:30N 37°31' E 025°54'1019.2
2017-Dec-18 16:58N 37°41' E 025°52'919.3
2017-Dec-18 16:28N 37°51' E 025°51'919.5
2017-Dec-18 16:00N 37°60' E 025°50'31 0.9
2017-Dec-17 03:19N 38°19' E 025°19'512.4
2017-Dec-17 02:56N 38°17' E 025°14'512.2
2017-Dec-17 02:30N 38°14' E 025°08'612.3
2017-Dec-17 01:59N 38°11' E 025°01'612.5
2017-Dec-17 01:30N 38°07' E 024°55'1512.2
2017-Dec-17 00:17N 37°60' E 024°39'412.2
2017-Dec-17 00:00N 37°56' E 024°37'612.4
2017-Dec-16 23:30N 37°51' E 024°35'612.6
2017-Dec-16 23:00N 37°45' E 024°32'612.4
2017-Dec-16 22:30N 37°39' E 024°28'612.3
2017-Dec-16 22:00N 37°34' E 024°25'812.2
2017-Dec-16 21:20N 37°26' E 024°20'412.1
2017-Dec-16 21:00N 37°23' E 024°18'612.2
2017-Dec-16 20:30N 37°17' E 024°15'612.2
2017-Dec-16 20:00N 37°12' E 024°11'612.2
2017-Dec-16 19:30N 37°07' E 024°07'612.4
2017-Dec-16 19:00N 37°01' E 024°04'612.4
2017-Dec-16 18:30N 36°55' E 024°01'612.4
2017-Dec-16 18:00N 36°50' E 023°57'612.3
2017-Dec-16 17:30N 36°44' E 023°54'4 7.3
2017-Dec-16 17:00N 36°42' E 023°50'1 1.6
2017-Dec-16 16:30N 36°42' E 023°49'1 1.5
2017-Dec-16 16:00N 36°41' E 023°49'1 1.5
2017-Dec-16 15:30N 36°40' E 023°49'1 1.4
2017-Dec-16 15:00N 36°40' E 023°48'1 1.3
2017-Dec-16 14:30N 36°39' E 023°48'1 1.4
2017-Dec-16 14:00N 36°39' E 023°47'1 1.4
2017-Dec-16 13:30N 36°38' E 023°47'1 1.6
2017-Dec-16 13:00N 36°37' E 023°46'1 1.7
2017-Dec-16 12:30N 36°36' E 023°46'1 1.6
2017-Dec-16 12:00N 36°36' E 023°46'1 1.6
2017-Dec-16 11:30N 36°35' E 023°45'1 1.5
2017-Dec-16 11:00N 36°34' E 023°45'1 1.4
2017-Dec-16 10:30N 36°34' E 023°44'1 1.3
2017-Dec-16 10:00N 36°33' E 023°44'1 1.3
2017-Dec-16 09:30N 36°33' E 023°44'1 1.5
2017-Dec-16 09:00N 36°32' E 023°44'1 1.4
2017-Dec-16 08:30N 36°31' E 023°44'1 1.2
2017-Dec-16 08:00N 36°31' E 023°43'1 2.2
2017-Dec-16 07:30N 36°30' E 023°42'911.8
2017-Dec-16 06:43N 36°23' E 023°35'44011.0
2017-Dec-14 14:42N 35°49' E 014°32'0 0.0
2017-Dec-14 14:12N 35°49' E 014°32'0 0.0
2017-Dec-14 13:42N 35°49' E 014°32'0 0.0
2017-Dec-14 13:30N 35°49' E 014°32'0 0.0
2017-Dec-14 13:00N 35°49' E 014°32'0 0.0
2017-Dec-14 12:30N 35°49' E 014°32'0 0.0
2017-Dec-14 11:57N 35°49' E 014°32'0 0.0
2017-Dec-14 10:33N 35°49' E 014°32'0 0.0
2017-Dec-14 06:30N 35°49' E 014°32'0 0.0
2017-Dec-14 05:51N 35°49' E 014°32'0 0.0
2017-Dec-14 05:24N 35°49' E 014°32'0 0.0
2017-Dec-14 04:00N 35°49' E 014°32'0 0.0
2017-Dec-14 03:30N 35°49' E 014°32'0 0.0
2017-Dec-13 23:15N 35°49' E 014°32'0 0.0
2017-Dec-13 22:52N 35°49' E 014°32'0 0.6
2017-Dec-13 22:30N 35°49' E 014°32'3 5.3
2017-Dec-13 22:00N 35°48' E 014°35'714.5
2017-Dec-13 21:30N 35°49' E 014°44'816.1
2017-Dec-13 21:00N 35°49' E 014°54'42815.0
2017-Dec-12 16:32N 37°10' E 023°37'217.0
2017-Dec-12 16:27N 37°11' E 023°37'817.2
2017-Dec-12 16:00N 37°18' E 023°40'816.5
2017-Dec-12 15:30N 37°26' E 023°42'816.7
2017-Dec-12 15:00N 37°35' E 023°42'816.5
2017-Dec-12 14:30N 37°43' E 023°40'816.6
2017-Dec-12 14:00N 37°51' E 023°37'611.5
2017-Dec-12 13:31N 37°57' E 023°36'1 1.9
2017-Dec-12 13:00N 37°57' E 023°35'0 0.0
2017-Dec-12 12:30N 37°57' E 023°35'0 0.0
2017-Dec-12 12:00N 37°57' E 023°35'0 0.0
2017-Dec-12 11:30N 37°57' E 023°35'0 0.0
2017-Dec-12 11:00N 37°57' E 023°35'0 0.0
2017-Dec-12 10:30N 37°57' E 023°35'0 0.0
2017-Dec-12 10:00N 37°57' E 023°35'0 0.0
2017-Dec-12 09:30N 37°57' E 023°35'0 0.0
2017-Dec-12 09:00N 37°57' E 023°35'0 0.0
2017-Dec-12 08:30N 37°57' E 023°35'0 0.0
2017-Dec-12 08:00N 37°57' E 023°35'0 0.0
2017-Dec-12 07:30N 37°57' E 023°35'0 0.0
2017-Dec-12 07:00N 37°57' E 023°35'0 0.0
2017-Dec-12 06:30N 37°57' E 023°35'0 0.0
2017-Dec-12 06:00N 37°57' E 023°35'0 0.0
2017-Dec-12 05:30N 37°57' E 023°35'0 0.0
2017-Dec-12 05:00N 37°57' E 023°35'0 0.0
2017-Dec-12 04:30N 37°57' E 023°35'0 0.0
2017-Dec-12 04:00N 37°57' E 023°35'0 0.0
2017-Dec-12 03:30N 37°57' E 023°35'0 0.0
2017-Dec-12 03:00N 37°57' E 023°35'0 0.0
2017-Dec-12 02:30N 37°57' E 023°35'0 0.0
2017-Dec-12 02:00N 37°57' E 023°35'0 0.0
2017-Dec-12 01:30N 37°57' E 023°35'0 0.0
2017-Dec-12 01:00N 37°57' E 023°35'0 0.0
2017-Dec-12 00:30N 37°57' E 023°35'0 0.0
2017-Dec-12 00:00N 37°57' E 023°35'0 0.0
2017-Dec-11 23:30N 37°57' E 023°35'0 0.0
2017-Dec-11 23:01N 37°57' E 023°35'0 0.0
2017-Dec-11 22:31N 37°57' E 023°35'1 2.2
2017-Dec-11 22:01N 37°56' E 023°35'3 6.5
2017-Dec-11 21:30N 37°53' E 023°37'0 0.4
2017-Dec-11 21:00N 37°54' E 023°37'0 0.4
2017-Dec-11 20:31N 37°54' E 023°36'0 0.3
2017-Dec-11 20:01N 37°54' E 023°36'1 1.8
2017-Dec-11 19:31N 37°53' E 023°37'5 9.7
2017-Dec-11 19:01N 37°49' E 023°40'  

Dump ship's entire track history